Time;durP1;ratioP1;P1;durP2;ratioP2;P2;SDS_P1;SDS_P2;PMS_P1;PMS_P2;Temp;Humidity;BMP_temperature;BMP_pressure;BME280_temperature;BME280_humidity;BME280_pressure;Samples;Min_cycle;Max_cycle;Signal;HPM_P1;HPM_P2
2022/09/16 00:00:04;;;;;;;16.30;10.10;;;;;;;10.01;79.44;98265.22;5095506;28;20517;-85
2022/09/16 00:02:31;;;;;;;22.63;9.80;;;;;;;10.01;78.95;98270.66;5096881;28;20114;-85
2022/09/16 00:04:57;;;;;;;15.98;9.80;;;;;;;9.84;79.03;98236.13;5097841;28;20032;-85
2022/09/16 00:07:23;;;;;;;21.80;10.15;;;;;;;9.89;79.25;98253.09;5099125;28;20492;-86
2022/09/16 00:17:15;;;;;;;18.90;10.43;;;;;;;9.91;79.99;98235.59;5100229;28;20107;-85
2022/09/16 00:19:52;;;;;;;17.55;10.07;;;;;;;9.95;79.75;98233.78;5103493;28;20103;-87
2022/09/16 00:22:18;;;;;;;14.15;9.98;;;;;;;10.04;79.44;98262.59;5103547;28;20024;-86
2022/09/16 00:24:47;;;;;;;18.65;10.60;;;;;;;9.67;79.91;98195.31;5103696;28;20028;-86
2022/09/16 00:27:13;;;;;;;30.05;13.13;;;;;;;9.94;80.03;98237.66;5102065;28;20058;-86
2022/09/16 00:29:39;;;;;;;27.85;12.35;;;;;;;10.15;80.36;98259.47;5099862;28;20048;-86
2022/09/16 00:34:33;;;;;;;19.85;11.40;;;;;;;10.01;79.85;98222.31;5102930;28;20097;-86
2022/09/16 00:39:34;;;;;;;14.88;10.13;;;;;;;10.33;80.09;98267.19;5124183;28;20020;-86
2022/09/16 00:44:53;;;;;;;18.27;10.90;;;;;;;10.34;80.53;98270.72;5122227;28;20016;-86
2022/09/16 00:50:12;;;;;;;20.70;11.10;;;;;;;10.36;80.97;98265.69;5122441;28;20039;-85
2022/09/16 00:52:51;;;;;;;20.13;10.13;;;;;;;10.47;81.00;98260.63;5121394;28;20063;-86
2022/09/16 00:55:22;;;;;;;19.27;10.55;;;;;;;10.37;80.64;98256.38;5121097;28;20019;-86
2022/09/16 00:57:49;;;;;;;19.58;10.85;;;;;;;10.34;80.67;98236.00;5126218;28;20050;-86
2022/09/16 01:00:15;;;;;;;;;;;;;;;10.58;80.61;98256.31;5122886;28;20484;-86
2022/09/16 01:02:44;;;;;;;20.47;10.47;;;;;;;10.47;80.69;98238.75;5104368;28;19929;-86
2022/09/16 01:08:13;;;;;;;19.92;11.63;;;;;;;10.64;80.74;98260.41;5123112;28;20044;-86
2022/09/16 01:10:52;;;;;;;20.02;11.30;;;;;;;10.54;80.38;98223.41;5039102;28;20033;-86
2022/09/16 01:19:07;;;;;;;18.67;9.93;;;;;;;10.67;79.52;98242.56;5035801;28;20155;-86
2022/09/16 01:21:44;;;;;;;17.25;9.95;;;;;;;10.74;79.10;98251.00;5042423;28;20029;-86
2022/09/16 01:24:10;;;;;;;;;;;;;;;10.72;79.17;98247.78;5040728;28;20041;-86
2022/09/16 01:27:08;;;;;;;18.25;10.18;;;;;;;10.41;79.03;98223.72;5037832;28;19924;-86
2022/09/16 01:29:59;;;;;;;14.95;9.48;;;;;;;10.48;78.65;98254.00;5040624;28;20469;-86
2022/09/16 01:32:49;;;;;;;13.15;9.27;;;;;;;10.39;78.97;98258.75;5024043;28;20034;-86
2022/09/16 01:36:04;;;;;;;15.68;9.38;;;;;;;10.22;78.58;98226.94;5040809;28;20060;-86
2022/09/16 01:39:04;;;;;;;14.18;9.40;;;;;;;10.28;78.49;98258.41;5046962;28;20056;-86
2022/09/16 01:44:08;;;;;;;21.40;10.02;;;;;;;10.11;78.57;98221.91;5042693;28;20052;-86
2022/09/16 01:46:45;;;;;;;21.92;10.20;;;;;;;10.18;79.08;98237.72;5028432;28;20028;-86
2022/09/16 01:49:39;;;;;;;19.42;11.32;;;;;;;10.25;79.70;98257.09;5104521;28;20044;-86
2022/09/16 01:52:37;;;;;;;20.05;11.40;;;;;;;10.30;80.45;98248.75;5122375;28;20047;-86
2022/09/16 01:55:34;;;;;;;24.42;11.95;;;;;;;10.33;80.84;98247.25;5123974;28;20096;-86
2022/09/16 01:58:16;;;;;;;22.65;11.48;;;;;;;10.32;81.15;98249.19;5123330;28;20575;-86
2022/09/16 02:00:58;;;;;;;21.13;10.80;;;;;;;10.38;81.00;98236.13;5122940;28;20480;-87
2022/09/16 02:08:40;;;;;;;17.85;10.70;;;;;;;10.46;80.37;98242.59;5124207;28;20078;-86
2022/09/16 02:11:22;;;;;;;22.45;10.88;;;;;;;10.18;80.31;98193.25;5114365;28;20024;-87
2022/09/16 02:16:37;;;;;;;22.88;11.48;;;;;;;10.25;79.85;98197.00;5100614;28;20044;-87
2022/09/16 02:19:19;;;;;;;22.95;11.80;;;;;;;10.27;79.49;98213.91;5084754;28;20047;-86
2022/09/16 02:22:11;;;;;;;19.70;10.77;;;;;;;10.32;79.31;98235.53;5088118;28;20040;-86
2022/09/16 02:29:45;;;;;;;19.60;10.55;;;;;;;10.09;79.17;98196.84;5102514;28;20040;-88
2022/09/16 02:37:33;;;;;;;15.95;9.80;;;;;;;10.09;79.79;98185.94;5098221;28;20051;-86
2022/09/16 02:40:09;;;;;;;17.73;9.63;;;;;;;10.29;79.59;98213.56;5091070;28;20048;-86
2022/09/16 02:45:06;;;;;;;19.92;10.63;;;;;;;10.27;79.73;98208.44;5096020;28;20143;-86
2022/09/16 02:48:11;;;;;;;19.92;11.07;;;;;;;10.27;79.71;98200.25;5098974;28;20040;-87
2022/09/16 02:50:55;;;;;;;19.77;11.50;;;;;;;10.48;79.64;98219.28;5045436;28;20029;-86
2022/09/16 02:54:15;;;;;;;20.08;10.40;;;;;;;10.41;78.86;98219.03;5095954;28;20060;-87
2022/09/16 03:01:45;;;;;;;20.73;10.40;;;;;;;10.37;79.17;98218.13;5116734;28;20172;-86
2022/09/16 03:04:19;;;;;;;21.17;10.18;;;;;;;10.34;79.31;98227.00;5086908;28;20031;-86
2022/09/16 03:06:46;;;;;;;20.08;11.18;;;;;;;10.34;79.24;98207.88;5122139;28;20044;-86
2022/09/16 03:09:14;;;;;;;21.52;10.52;;;;;;;10.22;79.18;98191.44;5122145;28;20134;-86
2022/09/16 03:11:59;;;;;;;19.85;10.90;;;;;;;10.35;79.40;98223.91;5084958;28;20054;-86
2022/09/16 03:14:59;;;;;;;23.33;11.25;;;;;;;10.43;79.58;98226.91;5106096;28;20087;-86
2022/09/16 03:17:50;;;;;;;18.85;10.68;;;;;;;10.44;78.91;98221.09;5089046;28;20043;-87
2022/09/16 03:20:37;;;;;;;19.60;11.32;;;;;;;10.43;79.32;98222.25;5086281;28;20501;-87
2022/09/16 03:23:13;;;;;;;;;;;;;;;10.44;79.53;98221.09;5107797;28;20062;-87
2022/09/16 03:26:06;;;;;;;16.92;11.10;;;;;;;10.48;79.58;98218.50;5106223;28;19924;-85
2022/09/16 03:28:41;;;;;;;21.30;11.30;;;;;;;10.52;78.77;98212.00;5139363;27;20091;-87
2022/09/16 03:31:54;;;;;;;22.80;11.82;;;;;;;10.56;78.53;98221.13;5120413;28;20074;-86
2022/09/16 03:35:05;;;;;;;22.58;11.75;;;;;;;10.41;78.59;98201.88;5119652;28;20031;-86
2022/09/16 03:37:34;;;;;;;21.45;11.75;;;;;;;10.49;78.61;98217.34;5131201;28;20091;-86
2022/09/16 03:40:14;;;;;;;28.98;12.00;;;;;;;10.55;78.84;98216.00;5119006;28;20053;-85
2022/09/16 03:42:42;;;;;;;21.00;12.18;;;;;;;10.51;78.79;98202.22;5124719;28;20035;-87
2022/09/16 03:45:18;;;;;;;29.20;12.23;;;;;;;10.41;78.73;98185.47;5119301;28;20051;-86
2022/09/16 03:47:47;;;;;;;27.17;11.70;;;;;;;10.68;79.11;98217.59;5109580;28;20035;-86
2022/09/16 03:50:13;;;;;;;24.45;11.93;;;;;;;10.46;78.90;98157.91;5118655;28;20051;-87
2022/09/16 03:52:49;;;;;;;32.53;12.23;;;;;;;10.66;78.64;98178.91;5087054;28;20048;-86
2022/09/16 03:55:15;;;;;;;21.85;12.68;;;;;;;10.75;78.70;98184.25;5096873;28;20046;-86
2022/09/16 03:57:41;;;;;;;20.35;11.73;;;;;;;10.78;79.47;98184.34;5099215;28;20046;-86
2022/09/16 04:07:36;;;;;;;27.23;13.25;;;;;;;10.96;79.93;98187.66;5101515;28;20043;-85
2022/09/16 04:15:00;;;;;;;25.15;12.60;;;;;;;10.95;80.33;98191.50;5094912;28;20047;-87
2022/09/16 04:19:59;;;;;;;21.83;12.45;;;;;;;11.11;81.04;98186.16;5103296;28;20205;-86
2022/09/16 04:22:48;;;;;;;31.77;13.17;;;;;;;11.40;81.20;98219.84;5099742;28;20036;-86
2022/09/16 04:27:42;;;;;;;19.75;12.70;;;;;;;11.24;81.15;98174.06;5102358;28;20039;-86
2022/09/16 04:30:15;;;;;;;28.38;14.50;;;;;;;11.31;81.09;98159.00;5069148;28;20051;-86
2022/09/16 04:32:41;;;;;;;19.63;13.27;;;;;;;11.43;81.16;98165.22;5101411;28;20044;-86
2022/09/16 04:40:08;;;;;;;19.38;12.02;;;;;;;11.73;81.00;98184.06;5102675;28;20031;-86
2022/09/16 04:42:36;;;;;;;19.98;12.73;;;;;;;11.86;80.75;98191.13;5079035;28;20042;-90
2022/09/16 04:47:28;;;;;;;23.33;12.48;;;;;;;12.17;80.18;98208.78;5093072;28;20117;-82
2022/09/16 04:49:54;;;;;;;38.70;13.52;;;;;;;12.19;80.48;98192.78;5091768;28;20404;-81
2022/09/16 04:52:20;;;;;;;22.37;12.67;;;;;;;12.31;80.14;98192.69;5097249;28;20047;-88
2022/09/16 04:54:46;;;;;;;24.40;12.30;;;;;;;12.46;79.98;98199.34;5110714;28;20315;-81
2022/09/16 04:57:12;;;;;;;20.60;13.02;;;;;;;12.54;79.99;98197.59;5112313;28;20126;-82
2022/09/16 04:59:38;;;;;;;21.70;12.63;;;;;;;12.48;79.99;98188.03;5111499;28;20066;-92
2022/09/16 05:02:05;;;;;;;19.40;12.13;;;;;;;12.56;79.49;98203.53;5112378;28;20043;-81
2022/09/16 05:04:31;;;;;;;22.23;12.27;;;;;;;12.50;79.62;98183.00;5112058;28;20039;-81
2022/09/16 05:06:57;;;;;;;20.60;12.23;;;;;;;12.61;79.50;98195.00;5112025;28;20039;-92
2022/09/16 05:09:23;;;;;;;20.20;12.07;;;;;;;12.50;79.34;98189.28;5113020;28;20044;-80
2022/09/16 05:11:49;;;;;;;22.00;13.00;;;;;;;12.54;79.69;98203.06;5114032;28;20138;-80
2022/09/16 05:14:17;;;;;;;25.27;12.10;;;;;;;12.58;79.46;98195.72;5116628;28;20040;-89
2022/09/16 05:16:44;;;;;;;19.83;12.05;;;;;;;12.63;79.47;98199.00;5116177;28;20177;-82
2022/09/16 05:19:12;;;;;;;19.10;12.38;;;;;;;12.64;79.50;98199.78;5116086;28;20039;-81
2022/09/16 05:21:39;;;;;;;23.60;12.45;;;;;;;12.68;79.68;98197.94;5116345;28;20032;-81
2022/09/16 05:24:10;;;;;;;19.67;12.60;;;;;;;12.74;79.76;98193.78;5116661;28;20028;-81
2022/09/16 05:26:40;;;;;;;20.95;12.15;;;;;;;12.64;79.72;98175.91;5115935;28;20036;-92
2022/09/16 05:31:37;;;;;;;22.30;12.95;;;;;;;12.87;79.54;98181.56;5116041;28;20404;-80
2022/09/16 05:34:20;;;;;;;21.75;12.02;;;;;;;12.92;79.21;98181.31;5115846;28;20041;-81
2022/09/16 05:36:48;;;;;;;24.27;13.05;;;;;;;12.84;79.34;98165.81;5098223;28;20518;-81
2022/09/16 05:39:16;;;;;;;20.52;12.07;;;;;;;12.84;79.29;98165.81;5115148;28;20035;-81
2022/09/16 05:41:43;;;;;;;20.38;11.70;;;;;;;13.00;79.13;98174.03;5115049;28;20039;-81
2022/09/16 05:44:09;;;;;;;19.05;12.88;;;;;;;12.86;79.67;98170.97;5113776;28;20416;-80
2022/09/16 05:46:36;;;;;;;18.30;12.50;;;;;;;12.90;79.58;98167.13;5116038;27;20043;-92
2022/09/16 05:49:03;;;;;;;18.30;12.95;;;;;;;12.89;79.64;98148.31;5115519;28;20042;-92
2022/09/16 05:51:30;;;;;;;20.92;12.25;;;;;;;13.15;79.40;98170.47;5115167;28;20028;-81
2022/09/16 05:53:57;;;;;;;26.52;12.65;;;;;;;13.06;79.28;98142.41;5116125;28;20058;-80
2022/09/16 05:56:26;;;;;;;20.73;11.68;;;;;;;13.28;78.80;98167.63;5115412;28;20092;-80
2022/09/16 05:58:53;;;;;;;23.05;13.25;;;;;;;13.35;78.73;98163.09;5115175;28;20038;-81
2022/09/16 06:01:22;;;;;;;20.52;13.40;;;;;;;13.46;79.00;98168.00;5114921;28;20085;-91
2022/09/16 06:03:50;;;;;;;25.10;13.52;;;;;;;13.46;78.72;98154.28;5097651;28;20428;-80
2022/09/16 06:06:26;;;;;;;23.33;12.52;;;;;;;13.61;78.25;98172.66;5098492;28;20036;-80
2022/09/16 06:08:55;;;;;;;22.38;13.05;;;;;;;13.70;77.91;98173.22;5118470;28;20636;-96
2022/09/16 06:11:23;;;;;;;17.70;11.75;;;;;;;13.68;77.40;98167.28;5118107;28;20039;-94
2022/09/16 06:13:58;;;;;;;18.90;12.15;;;;;;;13.77;77.55;98164.31;5116114;28;20043;-80
2022/09/16 06:16:25;;;;;;;18.00;12.20;;;;;;;13.88;77.66;98164.53;5117933;28;20509;-89
2022/09/16 06:18:53;;;;;;;19.15;11.73;;;;;;;13.81;77.45;98133.03;5115082;28;20039;-79
2022/09/16 06:21:19;;;;;;;16.83;10.70;;;;;;;13.99;77.31;98155.34;5117877;28;20197;-79
2022/09/16 06:23:46;;;;;;;18.05;11.52;;;;;;;13.88;76.91;98137.06;5128663;28;20032;-81
2022/09/16 06:26:16;;;;;;;18.93;12.73;;;;;;;13.88;76.74;98123.34;5100199;28;20255;-79
2022/09/16 06:28:42;;;;;;;17.83;11.52;;;;;;;14.00;77.26;98147.88;5116298;28;20322;-89
2022/09/16 06:31:16;;;;;;;16.10;11.73;;;;;;;14.12;77.00;98155.19;5117127;28;20042;-89
2022/09/16 06:33:45;;;;;;;25.40;12.52;;;;;;;14.15;77.46;98162.69;5071292;28;20120;-91
2022/09/16 06:36:15;;;;;;;18.92;11.85;;;;;;;14.18;77.07;98161.97;5118823;28;20406;-86
2022/09/16 06:38:41;;;;;;;16.60;10.77;;;;;;;14.18;77.11;98151.75;5120754;28;20047;-79
2022/09/16 06:41:09;;;;;;;17.33;11.70;;;;;;;14.27;77.32;98146.81;5126766;28;20039;-79
2022/09/16 06:43:36;;;;;;;20.27;12.00;;;;;;;14.28;77.02;98136.63;5128364;28;20477;-79
2022/09/16 06:46:20;;;;;;;21.80;12.25;;;;;;;14.29;76.88;98116.22;5118679;28;20015;-78
2022/09/16 06:48:52;;;;;;;19.25;12.50;;;;;;;14.53;76.29;98148.84;5119928;28;20439;-78
2022/09/16 06:51:23;;;;;;;14.65;10.85;;;;;;;14.54;75.96;98144.97;5116304;28;20047;-79
2022/09/16 06:53:51;;;;;;;18.92;11.38;;;;;;;14.62;76.11;98150.56;5120492;28;20465;-78
2022/09/16 06:56:19;;;;;;;16.80;10.85;;;;;;;14.63;75.67;98143.91;5120042;28;20039;-79
2022/09/16 06:58:47;;;;;;;15.10;11.48;;;;;;;14.56;75.54;98126.13;5121126;28;20052;-78
2022/09/16 07:01:20;;;;;;;18.55;11.60;;;;;;;14.68;75.55;98138.09;5121647;28;20062;-79
2022/09/16 07:03:52;;;;;;;29.63;12.75;;;;;;;14.67;75.45;98114.50;5102443;28;20584;-80
2022/09/16 07:06:25;;;;;;;17.40;11.75;;;;;;;14.87;75.04;98129.75;5117062;28;20063;-79
2022/09/16 07:08:53;;;;;;;20.88;12.27;;;;;;;14.93;75.22;98130.22;5118374;28;20126;-79
2022/09/16 07:11:22;;;;;;;21.50;12.23;;;;;;;15.00;74.80;98128.38;5115317;28;20089;-80
2022/09/16 07:13:51;;;;;;;17.58;12.45;;;;;;;15.10;74.54;98129.69;5112170;28;20036;-79
2022/09/16 07:16:23;;;;;;;19.67;12.55;;;;;;;15.07;74.24;98124.16;5112018;28;20028;-78
2022/09/16 07:18:56;;;;;;;26.08;13.23;;;;;;;15.19;75.02;98126.66;5094488;28;20056;-78
2022/09/16 07:21:28;;;;;;;19.33;13.00;;;;;;;15.13;74.56;98103.34;5095079;28;20515;-77
2022/09/16 07:24:00;;;;;;;16.48;12.35;;;;;;;15.39;74.44;98124.56;5099510;28;20074;-78
2022/09/16 07:26:29;;;;;;;18.90;12.77;;;;;;;15.50;74.06;98126.28;5115190;28;20090;-78
2022/09/16 07:28:57;;;;;;;29.48;12.60;;;;;;;15.66;74.03;98120.59;5098829;28;20095;-78
2022/09/16 07:31:27;;;;;;;17.38;12.15;;;;;;;15.76;73.27;98115.56;5108532;28;20020;-79
2022/09/16 07:33:55;;;;;;;28.40;13.15;;;;;;;15.79;73.45;98090.03;5121752;28;20062;-78
2022/09/16 07:36:25;;;;;;;20.02;11.95;;;;;;;16.13;72.88;98107.31;5123670;28;20015;-84
2022/09/16 07:38:51;;;;;;;16.13;12.07;;;;;;;16.30;72.12;98103.13;5122822;28;20050;-93
2022/09/16 07:41:22;;;;;;;22.08;10.77;;;;;;;16.43;71.70;98091.44;5104039;28;20036;-78
2022/09/16 07:43:49;;;;;;;46.78;14.25;;;;;;;16.65;71.30;98094.34;5116186;28;20488;-86
2022/09/16 07:46:17;;;;;;;21.65;11.27;;;;;;;16.64;69.99;98084.47;5116006;28;20050;-79
2022/09/16 07:48:46;;;;;;;17.30;10.95;;;;;;;16.78;70.21;98081.84;5103569;28;20099;-82
2022/09/16 07:51:18;;;;;;;19.83;11.50;;;;;;;16.75;69.63;98066.06;5103576;28;20082;-80
2022/09/16 07:53:45;;;;;;;16.42;11.48;;;;;;;16.92;69.64;98083.94;5103947;28;20039;-80
2022/09/16 07:56:11;;;;;;;;;;;;;;;17.03;69.70;98081.22;5098605;28;20357;-79
2022/09/16 07:58:41;;;;;;;19.67;10.18;;;;;;;17.10;69.43;98072.97;5118985;28;19941;-80
2022/09/16 08:01:11;;;;;;;16.60;10.73;;;;;;;17.07;69.41;98057.97;5118916;28;20389;-79
2022/09/16 08:03:41;;;;;;;15.85;10.77;;;;;;;17.22;69.10;98058.03;5118093;28;20035;-79
2022/09/16 08:06:33;;;;;;;17.17;11.00;;;;;;;17.35;68.46;98064.78;5114399;28;20039;-78
2022/09/16 08:09:01;;;;;;;13.63;10.18;;;;;;;17.43;68.02;98069.16;5099850;28;20011;-85
2022/09/16 08:11:28;;;;;;;20.63;10.95;;;;;;;17.49;67.30;98059.31;5088595;28;20039;-79
2022/09/16 08:13:56;;;;;;;17.30;10.65;;;;;;;17.46;67.90;98043.53;5107166;28;20047;-79
2022/09/16 08:16:23;;;;;;;24.67;11.02;;;;;;;17.70;67.58;98061.34;5095523;28;20439;-78
2022/09/16 08:18:55;;;;;;;15.43;9.95;;;;;;;17.84;66.63;98055.88;5097605;28;20424;-83
2022/09/16 08:21:26;;;;;;;20.48;10.50;;;;;;;17.90;66.70;98053.53;5078711;28;20527;-95
2022/09/16 08:24:04;;;;;;;18.60;11.10;;;;;;;17.73;66.80;98004.50;5095118;28;20043;-84
2022/09/16 08:26:30;;;;;;;14.20;9.68;;;;;;;17.87;65.69;98029.44;5112697;28;20546;-81
2022/09/16 08:28:56;;;;;;;14.02;9.88;;;;;;;17.78;65.04;98015.19;5111709;28;20080;-79
2022/09/16 08:31:23;;;;;;;17.67;10.48;;;;;;;18.03;65.58;98051.19;5114324;28;20046;-80
2022/09/16 08:33:52;;;;;;;14.20;9.85;;;;;;;18.12;66.11;98057.13;5115061;28;20079;-80
2022/09/16 08:36:22;;;;;;;20.70;10.68;;;;;;;18.00;65.25;98021.53;5114558;28;20135;-81
2022/09/16 08:38:52;;;;;;;20.85;10.95;;;;;;;18.08;65.56;98035.00;5096810;28;20486;-81
2022/09/16 08:41:39;;;;;;;17.10;9.95;;;;;;;18.25;65.86;98041.72;5115704;28;20039;-81
2022/09/16 08:44:32;;;;;;;17.92;10.57;;;;;;;18.18;64.78;98044.47;5114640;28;20127;-80
2022/09/16 08:47:05;;;;;;;19.45;11.18;;;;;;;18.04;64.53;98020.34;5107295;28;20052;-81
2022/09/16 08:49:46;;;;;;;20.58;11.25;;;;;;;18.03;65.66;98016.00;5115294;28;20032;-80
2022/09/16 08:52:37;;;;;;;16.35;10.50;;;;;;;18.08;65.50;98035.00;5093861;28;20052;-80
2022/09/16 08:55:30;;;;;;;18.92;10.90;;;;;;;17.97;65.63;98027.88;5076252;28;20044;-88
2022/09/16 08:58:00;;;;;;;20.23;11.45;;;;;;;18.13;65.97;98036.56;5067983;28;20032;-92
2022/09/16 09:00:26;;;;;;;17.85;10.55;;;;;;;17.93;65.13;98021.53;5097541;28;20065;-86
2022/09/16 09:03:23;;;;;;;24.35;11.02;;;;;;;18.12;65.68;98025.91;5114214;28;20093;-92
2022/09/16 09:05:55;;;;;;;16.80;11.05;;;;;;;18.15;65.02;98027.88;5103952;28;20047;-80
2022/09/16 09:08:47;;;;;;;15.38;10.27;;;;;;;18.16;65.79;98029.47;5113889;28;20070;-81
2022/09/16 09:11:46;;;;;;;16.75;10.27;;;;;;;18.18;65.00;98024.31;5072938;28;20049;-82
2022/09/16 09:14:32;;;;;;;16.30;10.77;;;;;;;18.17;65.17;98031.81;5073161;28;20056;-81
2022/09/16 09:17:24;;;;;;;16.83;11.13;;;;;;;18.11;64.88;98016.00;5072944;28;20049;-82
2022/09/16 09:20:20;;;;;;;16.42;9.82;;;;;;;18.27;65.08;98027.47;5074641;28;20078;-91
2022/09/16 09:23:12;;;;;;;28.90;10.30;;;;;;;18.30;65.17;98033.00;5062443;28;20541;-81
2022/09/16 09:25:50;;;;;;;25.65;10.65;;;;;;;18.30;65.38;98032.22;5052550;28;20045;-79
2022/09/16 09:28:23;;;;;;;27.85;10.32;;;;;;;18.17;64.82;98011.66;5051966;28;20095;-92
2022/09/16 09:31:04;;;;;;;18.65;9.82;;;;;;;18.30;65.11;98027.47;5052408;28;20032;-90
2022/09/16 09:34:11;;;;;;;13.43;9.00;;;;;;;18.34;64.83;98024.69;5062960;28;20132;-93
2022/09/16 09:36:56;;;;;;;17.48;8.57;;;;;;;18.44;63.48;98021.16;5016148;28;20049;-95
2022/09/16 09:39:32;;;;;;;13.68;7.63;;;;;;;18.42;62.16;98011.66;5042830;28;20044;-88
2022/09/16 09:42:25;;;;;;;15.77;8.43;;;;;;;18.53;60.95;98018.75;5059621;28;20045;-82
2022/09/16 09:45:03;;;;;;;11.30;7.93;;;;;;;18.53;60.76;98001.38;5074437;28;20048;-81
2022/09/16 09:47:37;;;;;;;19.10;9.25;;;;;;;18.74;61.55;98009.66;5082819;28;20027;-83
2022/09/16 09:50:21;;;;;;;21.33;8.75;;;;;;;18.73;61.18;98015.59;5122128;28;20036;-84
2022/09/16 09:53:17;;;;;;;15.93;8.35;;;;;;;18.77;60.73;97995.03;5117641;28;20079;-90
2022/09/16 09:55:57;;;;;;;12.80;7.57;;;;;;;18.88;59.95;98008.84;5102841;28;20044;-83
2022/09/16 09:58:39;;;;;;;10.30;6.65;;;;;;;18.83;59.37;97994.59;5123608;28;20040;-93
2022/09/16 10:01:08;;;;;;;17.02;7.70;;;;;;;18.80;59.79;97998.16;5133761;28;20074;-90
2022/09/16 10:03:36;;;;;;;10.23;7.15;;;;;;;18.80;60.75;97976.03;5096575;28;20035;-89
2022/09/16 10:06:04;;;;;;;14.45;9.77;;;;;;;19.01;60.35;97989.81;5124387;28;20028;-84
2022/09/16 10:08:47;;;;;;;29.90;8.65;;;;;;;19.04;60.66;97979.88;5132808;28;20090;-93
2022/09/16 10:11:27;;;;;;;15.55;8.55;;;;;;;19.07;60.18;97984.63;5127333;28;20074;-82
2022/09/16 10:14:20;;;;;;;14.05;7.80;;;;;;;19.15;61.00;97988.94;5127517;28;20007;-84
2022/09/16 10:16:50;;;;;;;12.38;7.03;;;;;;;19.12;59.56;97993.31;5132983;28;20138;-90
2022/09/16 10:19:25;;;;;;;10.38;6.75;;;;;;;18.97;59.83;97966.84;5115268;28;20543;-90
2022/09/16 10:22:41;;;;;;;16.52;7.05;;;;;;;19.12;59.75;97981.44;5109591;28;20039;-95
2022/09/16 10:25:48;;;;;;;22.63;7.70;;;;;;;19.21;61.23;97970.72;5128820;28;20045;-93
2022/09/16 10:28:21;;;;;;;18.88;7.80;;;;;;;19.07;59.80;97946.63;5101284;28;20044;-80
2022/09/16 10:30:51;;;;;;;13.77;7.85;;;;;;;19.04;60.42;97946.66;5115347;28;20071;-81
2022/09/16 10:33:29;;;;;;;16.73;7.53;;;;;;;19.07;60.15;97946.63;5123676;28;20047;-84
2022/09/16 10:36:01;;;;;;;12.35;7.97;;;;;;;19.16;59.57;97957.28;5130824;28;20039;-83
2022/09/16 10:38:43;;;;;;;10.32;6.72;;;;;;;19.00;58.76;97954.97;5107452;28;20039;-87
2022/09/16 10:42:00;;;;;;;12.32;6.25;;;;;;;18.96;56.85;97940.38;5120516;28;20011;-82
2022/09/16 10:44:36;;;;;;;8.73;5.25;;;;;;;19.00;56.90;97947.44;5121621;28;20088;-83
2022/09/16 10:47:15;;;;;;;8.82;6.10;;;;;;;18.99;56.24;97945.88;5066330;28;20397;-80
2022/09/16 10:49:56;;;;;;;9.75;6.20;;;;;;;18.87;56.04;97924.16;5118067;28;20050;-81
2022/09/16 10:52:26;;;;;;;15.00;6.85;;;;;;;18.94;56.86;97951.03;5117132;28;20043;-88
2022/09/16 10:54:53;;;;;;;11.63;5.93;;;;;;;18.84;56.53;97952.69;5118626;28;20550;-88
2022/09/16 10:57:25;;;;;;;12.00;6.60;;;;;;;18.87;56.06;97951.06;5114575;28;20040;-87
2022/09/16 11:00:07;;;;;;;12.60;7.28;;;;;;;18.82;56.95;97938.44;5113300;28;20032;-78
2022/09/16 11:03:09;;;;;;;13.90;8.00;;;;;;;18.82;58.21;97943.97;5113083;28;20096;-82
2022/09/16 11:06:08;;;;;;;17.23;7.68;;;;;;;18.63;59.18;97917.53;5109152;28;20096;-78
2022/09/16 11:09:01;;;;;;;15.32;9.00;;;;;;;18.81;59.44;97942.41;5109231;28;20043;-78
2022/09/16 11:12:05;;;;;;;26.80;13.50;;;;;;;18.78;59.13;97930.16;5112364;28;20054;-79
2022/09/16 11:14:59;;;;;;;24.25;9.85;;;;;;;18.78;59.34;97934.91;5050075;28;20054;-81
2022/09/16 11:17:53;;;;;;;15.68;7.68;;;;;;;18.80;59.88;97926.97;5105899;28;20119;-80
2022/09/16 11:20:45;;;;;;;23.35;9.70;;;;;;;18.78;59.74;97916.31;5110088;28;20051;-81
2022/09/16 11:23:43;;;;;;;27.25;9.23;;;;;;;18.74;59.64;97906.44;5111101;28;20048;-78
2022/09/16 11:26:13;;;;;;;26.38;8.88;;;;;;;18.57;60.21;97896.19;5102917;28;20035;-88
2022/09/16 11:29:02;;;;;;;15.02;7.72;;;;;;;18.67;60.18;97915.53;5094792;28;20529;-78
2022/09/16 11:31:39;;;;;;;24.05;8.93;;;;;;;18.61;61.32;97913.56;5121990;27;20039;-77
2022/09/16 11:34:14;;;;;;;18.15;7.93;;;;;;;18.55;60.70;97907.69;5114071;28;20040;-76
2022/09/16 11:37:04;;;;;;;20.67;8.27;;;;;;;18.50;60.96;97895.03;5096150;28;20105;-85
2022/09/16 11:39:48;;;;;;;15.48;7.80;;;;;;;18.58;61.83;97904.13;5095299;28;20036;-78
2022/09/16 11:42:34;;;;;;;11.50;6.88;;;;;;;18.40;62.04;97886.75;5114834;28;20054;-78
2022/09/16 11:45:03;;;;;;;16.85;6.53;;;;;;;18.44;61.70;97909.66;5113999;28;20043;-80
2022/09/16 11:48:04;;;;;;;16.20;6.78;;;;;;;18.38;61.93;97901.00;5099054;28;20453;-80
2022/09/16 11:51:04;;;;;;;18.33;6.47;;;;;;;18.33;61.32;97901.41;5098656;28;20035;-91
2022/09/16 11:53:47;;;;;;;17.10;7.57;;;;;;;18.19;61.88;97898.69;5087911;28;20100;-81
2022/09/16 11:56:21;;;;;;;12.18;7.35;;;;;;;17.95;61.56;97870.69;5092503;28;20583;-85
2022/09/16 11:59:04;;;;;;;11.63;5.80;;;;;;;17.97;63.40;97870.28;5096755;28;20078;-85
2022/09/16 12:01:43;;;;;;;15.05;5.95;;;;;;;18.08;63.08;97887.66;5087390;28;20051;-80
2022/09/16 12:04:15;;;;;;;15.10;5.97;;;;;;;17.95;63.63;97873.44;5095165;28;20457;-80
2022/09/16 12:06:52;;;;;;;11.95;6.30;;;;;;;17.92;64.58;97879.78;5093647;28;20072;-80
2022/09/16 12:09:36;;;;;;;12.63;6.88;;;;;;;17.86;65.50;97875.03;5095499;28;20089;-81
2022/09/16 12:12:13;;;;;;;17.08;7.07;;;;;;;17.60;66.28;97843.81;5094186;28;20052;-81
2022/09/16 12:14:59;;;;;;;14.50;6.20;;;;;;;17.65;65.12;97867.50;5095639;28;20486;-82
2022/09/16 12:17:33;;;;;;;8.43;5.82;;;;;;;17.58;65.79;97874.63;5097383;28;20032;-83
2022/09/16 12:20:34;;;;;;;14.55;6.53;;;;;;;17.51;66.91;97860.78;5095360;28;20038;-82
2022/09/16 12:23:14;;;;;;;16.38;7.55;;;;;;;17.37;67.52;97849.75;5097306;28;20090;-87
2022/09/16 12:26:07;;;;;;;14.07;8.80;;;;;;;17.44;68.16;97876.59;5097437;28;20066;-83
2022/09/16 12:28:44;;;;;;;24.42;11.75;;;;;;;17.43;68.01;97864.75;5089510;28;20094;-83
2022/09/16 12:31:29;;;;;;;21.58;11.65;;;;;;;17.41;67.47;97867.09;5093726;28;20043;-88
2022/09/16 12:34:10;;;;;;;24.67;11.43;;;;;;;17.34;68.60;97861.59;5092968;28;20089;-83
2022/09/16 12:36:41;;;;;;;21.13;10.90;;;;;;;17.26;68.11;97849.75;5093138;28;20413;-87
2022/09/16 12:39:10;;;;;;;19.50;10.75;;;;;;;17.16;67.91;97842.25;5093171;28;20040;-82
2022/09/16 12:41:55;;;;;;;16.42;10.02;;;;;;;17.33;68.97;97857.25;5092738;28;20048;-83
2022/09/16 12:44:31;;;;;;;16.48;10.13;;;;;;;17.26;68.60;97854.47;5092456;28;20159;-83
2022/09/16 12:47:04;;;;;;;;;;;;;;;17.20;68.98;97853.28;5092299;28;20036;-82
2022/09/16 12:49:50;;;;;;;25.05;9.27;;;;;;;17.19;69.50;97849.75;5092247;28;20463;-83
2022/09/16 12:52:38;;;;;;;16.33;9.60;;;;;;;17.19;69.88;97848.97;5097841;28;20062;-84
2022/09/16 12:55:31;;;;;;;16.45;8.02;;;;;;;17.13;70.16;97843.03;5112623;28;20044;-85
2022/09/16 12:58:22;;;;;;;13.10;7.20;;;;;;;17.11;69.27;97846.16;5112754;28;20043;-84
2022/09/16 13:01:10;;;;;;;13.52;6.70;;;;;;;17.12;70.68;97839.47;5112842;28;20564;-82
2022/09/16 14:31:00;;;;;;;25.53;10.93;;;;;;;15.82;74.49;97849.56;6200193;22;1709611;-90
2022/09/16 14:33:32;;;;;;;37.08;13.27;;;;;;;15.79;75.10;97853.06;6251833;23;20028;-89
2022/09/16 14:36:07;;;;;;;35.30;15.57;;;;;;;15.68;75.43;97848.28;6202183;23;20361;-88
2022/09/16 14:38:41;;;;;;;35.95;14.15;;;;;;;15.61;75.79;97844.66;6201327;23;20016;-87
2022/09/16 14:41:09;;;;;;;27.85;13.98;;;;;;;15.58;76.43;97848.97;6200989;23;20062;-87
2022/09/16 14:43:38;;;;;;;36.38;15.68;;;;;;;15.50;77.03;97831.59;6199205;23;20020;-87
2022/09/16 14:46:12;;;;;;;24.10;11.75;;;;;;;15.46;76.36;97833.56;6202420;23;20353;-87
2022/09/16 14:48:41;;;;;;;23.70;11.63;;;;;;;15.31;76.33;97825.56;6201168;23;20012;-87
2022/09/16 14:51:20;;;;;;;21.77;12.15;;;;;;;15.31;76.83;97831.84;6200944;23;20471;-86
2022/09/16 14:53:55;;;;;;;19.52;11.60;;;;;;;15.23;77.29;97827.44;6200839;23;20103;-87